sensor_id;sensor_type;location;lat;lon;timestamp;pressure;altitude;pressure_sealevel;temperature;humidity
62948;BME280;51940;52.126;-0.994;2022-12-10T00:01:07;99881.36;;;-3.77;100.00
62948;BME280;51940;52.126;-0.994;2022-12-10T00:03:33;99888.48;;;-3.77;100.00
62948;BME280;51940;52.126;-0.994;2022-12-10T00:06:03;99890.39;;;-3.78;100.00
62948;BME280;51940;52.126;-0.994;2022-12-10T00:08:29;99888.48;;;-3.77;100.00
62948;BME280;51940;52.126;-0.994;2022-12-10T00:10:54;99880.63;;;-3.78;100.00
62948;BME280;51940;52.126;-0.994;2022-12-10T00:13:20;99879.55;;;-3.79;100.00
62948;BME280;51940;52.126;-0.994;2022-12-10T00:15:45;99882.17;;;-3.79;100.00
62948;BME280;51940;52.126;-0.994;2022-12-10T00:18:11;99878.33;;;-3.80;100.00
62948;BME280;51940;52.126;-0.994;2022-12-10T00:20:37;99883.05;;;-3.79;100.00
62948;BME280;51940;52.126;-0.994;2022-12-10T00:23:02;99884.10;;;-3.79;100.00
62948;BME280;51940;52.126;-0.994;2022-12-10T00:25:28;99884.81;;;-3.78;100.00
62948;BME280;51940;52.126;-0.994;2022-12-10T00:27:53;99871.94;;;-3.77;100.00
62948;BME280;51940;52.126;-0.994;2022-12-10T00:30:19;99877.88;;;-3.77;100.00
62948;BME280;51940;52.126;-0.994;2022-12-10T00:32:44;99883.11;;;-3.76;100.00
62948;BME280;51940;52.126;-0.994;2022-12-10T00:35:10;99883.80;;;-3.77;100.00
62948;BME280;51940;52.126;-0.994;2022-12-10T00:37:35;99881.54;;;-3.77;100.00
62948;BME280;51940;52.126;-0.994;2022-12-10T00:40:00;99879.80;;;-3.77;100.00
62948;BME280;51940;52.126;-0.994;2022-12-10T00:42:26;99868.27;;;-3.77;100.00
62948;BME280;51940;52.126;-0.994;2022-12-10T00:44:51;99870.39;;;-3.76;100.00
62948;BME280;51940;52.126;-0.994;2022-12-10T00:47:16;99880.23;;;-3.80;100.00
62948;BME280;51940;52.126;-0.994;2022-12-10T00:49:42;99880.11;;;-3.85;100.00
62948;BME280;51940;52.126;-0.994;2022-12-10T00:52:07;99880.23;;;-3.87;100.00
62948;BME280;51940;52.126;-0.994;2022-12-10T00:54:33;99879.70;;;-3.88;100.00
62948;BME280;51940;52.126;-0.994;2022-12-10T00:56:58;99883.11;;;-3.90;100.00
62948;BME280;51940;52.126;-0.994;2022-12-10T00:59:23;99883.73;;;-3.93;100.00
62948;BME280;51940;52.126;-0.994;2022-12-10T01:01:49;99882.13;;;-3.94;100.00
62948;BME280;51940;52.126;-0.994;2022-12-10T01:04:16;99880.71;;;-3.95;100.00
62948;BME280;51940;52.126;-0.994;2022-12-10T01:06:47;99884.35;;;-3.97;100.00
62948;BME280;51940;52.126;-0.994;2022-12-10T01:09:17;99879.98;;;-3.97;100.00
62948;BME280;51940;52.126;-0.994;2022-12-10T01:11:45;99877.73;;;-3.97;100.00
62948;BME280;51940;52.126;-0.994;2022-12-10T01:14:14;99882.59;;;-3.97;100.00
62948;BME280;51940;52.126;-0.994;2022-12-10T01:16:40;99886.24;;;-3.98;100.00
62948;BME280;51940;52.126;-0.994;2022-12-10T01:19:06;99886.23;;;-3.99;100.00
62948;BME280;51940;52.126;-0.994;2022-12-10T01:21:32;99888.14;;;-3.99;100.00
62948;BME280;51940;52.126;-0.994;2022-12-10T01:23:58;99885.36;;;-3.98;100.00
62948;BME280;51940;52.126;-0.994;2022-12-10T01:26:26;99888.50;;;-3.98;100.00
62948;BME280;51940;52.126;-0.994;2022-12-10T01:28:52;99888.52;;;-3.97;100.00
62948;BME280;51940;52.126;-0.994;2022-12-10T01:31:21;99886.24;;;-3.98;100.00
62948;BME280;51940;52.126;-0.994;2022-12-10T01:33:47;99892.14;;;-3.99;100.00
62948;BME280;51940;52.126;-0.994;2022-12-10T01:36:24;99896.59;;;-4.01;100.00
62948;BME280;51940;52.126;-0.994;2022-12-10T01:38:50;99894.73;;;-4.05;100.00
62948;BME280;51940;52.126;-0.994;2022-12-10T01:41:22;99897.34;;;-4.06;100.00
62948;BME280;51940;52.126;-0.994;2022-12-10T01:46:16;99899.56;;;-4.08;100.00
62948;BME280;51940;52.126;-0.994;2022-12-10T01:48:42;99901.58;;;-4.10;100.00
62948;BME280;51940;52.126;-0.994;2022-12-10T01:51:08;99902.27;;;-4.11;100.00
62948;BME280;51940;52.126;-0.994;2022-12-10T01:53:34;99902.77;;;-4.11;100.00
62948;BME280;51940;52.126;-0.994;2022-12-10T01:55:59;99899.44;;;-4.12;100.00
62948;BME280;51940;52.126;-0.994;2022-12-10T01:58:25;99899.27;;;-4.12;100.00
62948;BME280;51940;52.126;-0.994;2022-12-10T02:04:01;99903.28;;;-4.11;100.00
62948;BME280;51940;52.126;-0.994;2022-12-10T02:12:35;99910.51;;;-4.09;100.00
62948;BME280;51940;52.126;-0.994;2022-12-10T02:15:26;99904.93;;;-4.09;100.00
62948;BME280;51940;52.126;-0.994;2022-12-10T02:20:56;99908.39;;;-4.10;100.00
62948;BME280;51940;52.126;-0.994;2022-12-10T02:23:28;99912.95;;;-4.09;100.00
62948;BME280;51940;52.126;-0.994;2022-12-10T02:26:04;99916.27;;;-4.09;100.00
62948;BME280;51940;52.126;-0.994;2022-12-10T02:28:46;99916.61;;;-4.09;100.00
62948;BME280;51940;52.126;-0.994;2022-12-10T02:31:18;99913.65;;;-4.09;100.00
62948;BME280;51940;52.126;-0.994;2022-12-10T02:33:51;99913.48;;;-4.09;100.00
62948;BME280;51940;52.126;-0.994;2022-12-10T02:36:20;99905.65;;;-4.08;100.00
62948;BME280;51940;52.126;-0.994;2022-12-10T02:38:48;99904.66;;;-4.06;100.00
62948;BME280;51940;52.126;-0.994;2022-12-10T02:41:19;99900.29;;;-4.06;100.00
62948;BME280;51940;52.126;-0.994;2022-12-10T02:43:50;99901.02;;;-4.12;100.00
62948;BME280;51940;52.126;-0.994;2022-12-10T02:46:16;99898.19;;;-4.20;100.00
62948;BME280;51940;52.126;-0.994;2022-12-10T02:48:43;99894.77;;;-4.25;100.00
62948;BME280;51940;52.126;-0.994;2022-12-10T02:51:09;99890.48;;;-4.28;100.00
62948;BME280;51940;52.126;-0.994;2022-12-10T02:53:41;99888.73;;;-4.29;100.00
62948;BME280;51940;52.126;-0.994;2022-12-10T02:58:57;99888.89;;;-4.29;100.00
62948;BME280;51940;52.126;-0.994;2022-12-10T03:04:25;99893.07;;;-4.29;100.00
62948;BME280;51940;52.126;-0.994;2022-12-10T03:06:59;99894.79;;;-4.30;100.00
62948;BME280;51940;52.126;-0.994;2022-12-10T03:09:35;99892.77;;;-4.34;100.00
62948;BME280;51940;52.126;-0.994;2022-12-10T03:12:11;99889.96;;;-4.35;100.00
62948;BME280;51940;52.126;-0.994;2022-12-10T03:14:41;99882.20;;;-4.32;100.00
62948;BME280;51940;52.126;-0.994;2022-12-10T03:17:08;99882.23;;;-4.31;100.00
62948;BME280;51940;52.126;-0.994;2022-12-10T03:19:37;99880.16;;;-4.30;100.00
62948;BME280;51940;52.126;-0.994;2022-12-10T03:22:06;99876.68;;;-4.30;100.00
62948;BME280;51940;52.126;-0.994;2022-12-10T03:24:34;99878.80;;;-4.28;100.00
62948;BME280;51940;52.126;-0.994;2022-12-10T03:27:03;99870.12;;;-4.28;100.00
62948;BME280;51940;52.126;-0.994;2022-12-10T03:29:47;99873.60;;;-4.28;100.00
62948;BME280;51940;52.126;-0.994;2022-12-10T03:32:14;99880.80;;;-4.26;100.00
62948;BME280;51940;52.126;-0.994;2022-12-10T03:34:41;99883.94;;;-4.26;100.00
62948;BME280;51940;52.126;-0.994;2022-12-10T03:37:07;99886.02;;;-4.27;100.00
62948;BME280;51940;52.126;-0.994;2022-12-10T03:39:33;99883.17;;;-4.28;100.00
62948;BME280;51940;52.126;-0.994;2022-12-10T03:41:59;99878.29;;;-4.28;100.00
62948;BME280;51940;52.126;-0.994;2022-12-10T03:44:36;99877.45;;;-4.27;100.00
62948;BME280;51940;52.126;-0.994;2022-12-10T03:47:04;99882.45;;;-4.28;100.00
62948;BME280;51940;52.126;-0.994;2022-12-10T03:49:30;99882.02;;;-4.32;100.00
62948;BME280;51940;52.126;-0.994;2022-12-10T03:51:55;99882.99;;;-4.35;100.00
62948;BME280;51940;52.126;-0.994;2022-12-10T03:54:21;99882.58;;;-4.37;100.00
62948;BME280;51940;52.126;-0.994;2022-12-10T03:56:46;99879.23;;;-4.39;100.00
62948;BME280;51940;52.126;-0.994;2022-12-10T03:59:12;99876.04;;;-4.41;100.00
62948;BME280;51940;52.126;-0.994;2022-12-10T04:01:37;99877.90;;;-4.43;100.00
62948;BME280;51940;52.126;-0.994;2022-12-10T04:04:04;99877.65;;;-4.45;100.00
62948;BME280;51940;52.126;-0.994;2022-12-10T04:06:30;99875.70;;;-4.46;100.00
62948;BME280;51940;52.126;-0.994;2022-12-10T04:08:55;99871.02;;;-4.46;100.00
62948;BME280;51940;52.126;-0.994;2022-12-10T04:11:21;99868.77;;;-4.45;100.00
62948;BME280;51940;52.126;-0.994;2022-12-10T04:13:46;99869.46;;;-4.45;100.00
62948;BME280;51940;52.126;-0.994;2022-12-10T04:16:32;99870.66;;;-4.46;100.00
62948;BME280;51940;52.126;-0.994;2022-12-10T04:19:00;99873.23;;;-4.48;100.00
62948;BME280;51940;52.126;-0.994;2022-12-10T04:21:28;99873.47;;;-4.52;100.00
62948;BME280;51940;52.126;-0.994;2022-12-10T04:24:14;99877.65;;;-4.52;100.00
62948;BME280;51940;52.126;-0.994;2022-12-10T04:27:05;99878.85;;;-4.53;100.00
62948;BME280;51940;52.126;-0.994;2022-12-10T04:29:31;99880.23;;;-4.59;100.00
62948;BME280;51940;52.126;-0.994;2022-12-10T04:31:57;99879.39;;;-4.64;100.00
62948;BME280;51940;52.126;-0.994;2022-12-10T04:34:23;99883.14;;;-4.67;100.00
62948;BME280;51940;52.126;-0.994;2022-12-10T04:36:50;99880.37;;;-4.72;100.00
62948;BME280;51940;52.126;-0.994;2022-12-10T04:39:16;99878.54;;;-4.76;100.00
62948;BME280;51940;52.126;-0.994;2022-12-10T04:41:43;99881.85;;;-4.76;100.00
62948;BME280;51940;52.126;-0.994;2022-12-10T04:44:09;99881.89;;;-4.80;100.00
62948;BME280;51940;52.126;-0.994;2022-12-10T04:46:35;99884.35;;;-4.86;100.00
62948;BME280;51940;52.126;-0.994;2022-12-10T04:49:01;99888.86;;;-4.91;100.00
62948;BME280;51940;52.126;-0.994;2022-12-10T04:51:27;99887.83;;;-4.97;100.00
62948;BME280;51940;52.126;-0.994;2022-12-10T04:53:53;99887.83;;;-5.03;100.00
62948;BME280;51940;52.126;-0.994;2022-12-10T04:56:18;99889.08;;;-5.07;100.00
62948;BME280;51940;52.126;-0.994;2022-12-10T04:58:43;99890.41;;;-5.10;100.00
62948;BME280;51940;52.126;-0.994;2022-12-10T05:01:10;99889.34;;;-5.11;100.00
62948;BME280;51940;52.126;-0.994;2022-12-10T05:03:38;99886.23;;;-5.09;100.00
62948;BME280;51940;52.126;-0.994;2022-12-10T05:06:05;99889.78;;;-5.07;100.00
62948;BME280;51940;52.126;-0.994;2022-12-10T05:08:31;99888.23;;;-5.06;100.00
62948;BME280;51940;52.126;-0.994;2022-12-10T05:11:01;99884.98;;;-5.04;100.00
62948;BME280;51940;52.126;-0.994;2022-12-10T05:13:27;99885.08;;;-5.02;100.00
62948;BME280;51940;52.126;-0.994;2022-12-10T05:15:53;99881.01;;;-4.98;100.00
62948;BME280;51940;52.126;-0.994;2022-12-10T05:18:18;99880.18;;;-4.96;100.00
62948;BME280;51940;52.126;-0.994;2022-12-10T05:20:44;99875.91;;;-4.94;100.00
62948;BME280;51940;52.126;-0.994;2022-12-10T05:23:09;99877.16;;;-4.93;100.00
62948;BME280;51940;52.126;-0.994;2022-12-10T05:28:28;99879.50;;;-5.02;100.00
62948;BME280;51940;52.126;-0.994;2022-12-10T05:30:54;99876.09;;;-5.05;100.00
62948;BME280;51940;52.126;-0.994;2022-12-10T05:33:20;99875.98;;;-5.10;100.00
62948;BME280;51940;52.126;-0.994;2022-12-10T05:35:57;99875.19;;;-5.13;100.00
62948;BME280;51940;52.126;-0.994;2022-12-10T05:38:23;99874.61;;;-5.15;100.00
62948;BME280;51940;52.126;-0.994;2022-12-10T05:40:49;99879.16;;;-5.14;100.00
62948;BME280;51940;52.126;-0.994;2022-12-10T05:43:15;99881.59;;;-5.14;100.00
62948;BME280;51940;52.126;-0.994;2022-12-10T05:45:41;99881.55;;;-5.15;100.00
62948;BME280;51940;52.126;-0.994;2022-12-10T05:48:09;99878.01;;;-5.17;100.00
62948;BME280;51940;52.126;-0.994;2022-12-10T05:50:35;99879.20;;;-5.18;100.00
62948;BME280;51940;52.126;-0.994;2022-12-10T05:53:00;99876.55;;;-5.20;100.00
62948;BME280;51940;52.126;-0.994;2022-12-10T05:55:26;99879.14;;;-5.21;100.00
62948;BME280;51940;52.126;-0.994;2022-12-10T05:57:52;99875.61;;;-5.22;100.00
62948;BME280;51940;52.126;-0.994;2022-12-10T06:00:18;99876.67;;;-5.22;100.00
62948;BME280;51940;52.126;-0.994;2022-12-10T06:02:43;99871.75;;;-5.23;100.00
62948;BME280;51940;52.126;-0.994;2022-12-10T06:05:08;99873.52;;;-5.22;100.00
62948;BME280;51940;52.126;-0.994;2022-12-10T06:07:34;99874.02;;;-5.23;100.00
62948;BME280;51940;52.126;-0.994;2022-12-10T06:10:00;99881.70;;;-5.22;100.00
62948;BME280;51940;52.126;-0.994;2022-12-10T06:12:25;99879.02;;;-5.19;100.00
62948;BME280;51940;52.126;-0.994;2022-12-10T06:14:51;99877.88;;;-5.16;100.00
62948;BME280;51940;52.126;-0.994;2022-12-10T06:17:16;99882.33;;;-5.13;100.00
62948;BME280;51940;52.126;-0.994;2022-12-10T06:19:41;99879.52;;;-5.13;100.00
62948;BME280;51940;52.126;-0.994;2022-12-10T06:22:07;99879.09;;;-5.16;100.00
62948;BME280;51940;52.126;-0.994;2022-12-10T06:24:32;99877.12;;;-5.24;100.00
62948;BME280;51940;52.126;-0.994;2022-12-10T06:26:58;99878.71;;;-5.28;100.00
62948;BME280;51940;52.126;-0.994;2022-12-10T06:29:23;99880.42;;;-5.29;100.00
62948;BME280;51940;52.126;-0.994;2022-12-10T06:31:48;99876.77;;;-5.29;100.00
62948;BME280;51940;52.126;-0.994;2022-12-10T06:34:14;99883.06;;;-5.29;100.00
62948;BME280;51940;52.126;-0.994;2022-12-10T06:36:39;99883.42;;;-5.28;100.00
62948;BME280;51940;52.126;-0.994;2022-12-10T06:39:05;99883.59;;;-5.28;100.00
62948;BME280;51940;52.126;-0.994;2022-12-10T06:41:30;99886.15;;;-5.30;100.00
62948;BME280;51940;52.126;-0.994;2022-12-10T06:43:55;99886.02;;;-5.28;100.00
62948;BME280;51940;52.126;-0.994;2022-12-10T06:46:25;99885.70;;;-5.27;100.00
62948;BME280;51940;52.126;-0.994;2022-12-10T06:48:52;99883.27;;;-5.27;100.00
62948;BME280;51940;52.126;-0.994;2022-12-10T06:51:18;99882.40;;;-5.27;100.00
62948;BME280;51940;52.126;-0.994;2022-12-10T06:53:44;99883.80;;;-5.27;100.00
62948;BME280;51940;52.126;-0.994;2022-12-10T06:56:15;99889.00;;;-5.27;100.00
62948;BME280;51940;52.126;-0.994;2022-12-10T06:58:41;99892.02;;;-5.30;100.00
62948;BME280;51940;52.126;-0.994;2022-12-10T07:01:21;99893.58;;;-5.31;100.00
62948;BME280;51940;52.126;-0.994;2022-12-10T07:03:49;99896.52;;;-5.31;100.00
62948;BME280;51940;52.126;-0.994;2022-12-10T07:06:14;99897.71;;;-5.32;100.00
62948;BME280;51940;52.126;-0.994;2022-12-10T07:08:40;99897.67;;;-5.33;100.00
62948;BME280;51940;52.126;-0.994;2022-12-10T07:11:07;99898.17;;;-5.34;100.00
62948;BME280;51940;52.126;-0.994;2022-12-10T07:13:33;99897.40;;;-5.31;100.00
62948;BME280;51940;52.126;-0.994;2022-12-10T07:15:59;99898.77;;;-5.26;100.00
62948;BME280;51940;52.126;-0.994;2022-12-10T07:18:25;99890.25;;;-5.21;100.00
62948;BME280;51940;52.126;-0.994;2022-12-10T07:20:50;99893.30;;;-5.17;100.00
62948;BME280;51940;52.126;-0.994;2022-12-10T07:23:16;99891.80;;;-5.15;100.00
62948;BME280;51940;52.126;-0.994;2022-12-10T07:25:41;99893.89;;;-5.15;100.00
62948;BME280;51940;52.126;-0.994;2022-12-10T07:28:06;99894.36;;;-5.17;100.00
62948;BME280;51940;52.126;-0.994;2022-12-10T07:30:32;99890.94;;;-5.21;100.00
62948;BME280;51940;52.126;-0.994;2022-12-10T07:32:59;99889.98;;;-5.24;100.00
62948;BME280;51940;52.126;-0.994;2022-12-10T07:35:24;99890.58;;;-5.27;100.00
62948;BME280;51940;52.126;-0.994;2022-12-10T07:37:49;99889.95;;;-5.30;100.00
62948;BME280;51940;52.126;-0.994;2022-12-10T07:40:15;99893.77;;;-5.30;100.00
62948;BME280;51940;52.126;-0.994;2022-12-10T07:42:40;99895.58;;;-5.29;100.00
62948;BME280;51940;52.126;-0.994;2022-12-10T07:45:06;99891.95;;;-5.28;100.00
62948;BME280;51940;52.126;-0.994;2022-12-10T07:47:35;99896.70;;;-5.26;100.00
62948;BME280;51940;52.126;-0.994;2022-12-10T07:50:01;99894.09;;;-5.25;100.00
62948;BME280;51940;52.126;-0.994;2022-12-10T07:52:26;99896.02;;;-5.25;100.00
62948;BME280;51940;52.126;-0.994;2022-12-10T07:54:52;99896.21;;;-5.24;100.00
62948;BME280;51940;52.126;-0.994;2022-12-10T07:57:17;99902.84;;;-5.23;100.00
62948;BME280;51940;52.126;-0.994;2022-12-10T07:59:42;99899.09;;;-5.27;100.00
62948;BME280;51940;52.126;-0.994;2022-12-10T08:02:08;99895.27;;;-5.32;100.00
62948;BME280;51940;52.126;-0.994;2022-12-10T08:04:34;99899.92;;;-5.34;100.00
62948;BME280;51940;52.126;-0.994;2022-12-10T08:06:59;99899.52;;;-5.35;100.00
62948;BME280;51940;52.126;-0.994;2022-12-10T08:09:25;99901.73;;;-5.37;100.00
62948;BME280;51940;52.126;-0.994;2022-12-10T08:11:50;99905.69;;;-5.38;100.00
62948;BME280;51940;52.126;-0.994;2022-12-10T08:14:16;99903.43;;;-5.38;100.00
62948;BME280;51940;52.126;-0.994;2022-12-10T08:16:41;99905.95;;;-5.35;100.00
62948;BME280;51940;52.126;-0.994;2022-12-10T08:19:06;99903.25;;;-5.33;100.00
62948;BME280;51940;52.126;-0.994;2022-12-10T08:21:32;99904.35;;;-5.31;100.00
62948;BME280;51940;52.126;-0.994;2022-12-10T08:23:58;99903.31;;;-5.30;100.00
62948;BME280;51940;52.126;-0.994;2022-12-10T08:26:27;99907.77;;;-5.33;100.00
62948;BME280;51940;52.126;-0.994;2022-12-10T08:28:54;99911.68;;;-5.35;100.00
62948;BME280;51940;52.126;-0.994;2022-12-10T08:31:20;99913.09;;;-5.35;100.00
62948;BME280;51940;52.126;-0.994;2022-12-10T08:33:47;99914.80;;;-5.36;100.00
62948;BME280;51940;52.126;-0.994;2022-12-10T08:36:15;99916.89;;;-5.36;100.00
62948;BME280;51940;52.126;-0.994;2022-12-10T08:38:41;99922.33;;;-5.34;100.00
62948;BME280;51940;52.126;-0.994;2022-12-10T08:41:10;99921.10;;;-5.29;100.00
62948;BME280;51940;52.126;-0.994;2022-12-10T08:43:36;99925.34;;;-5.27;100.00
62948;BME280;51940;52.126;-0.994;2022-12-10T08:46:02;99925.89;;;-5.26;100.00
62948;BME280;51940;52.126;-0.994;2022-12-10T08:48:28;99927.52;;;-5.24;100.00
62948;BME280;51940;52.126;-0.994;2022-12-10T08:50:54;99924.80;;;-5.22;100.00
62948;BME280;51940;52.126;-0.994;2022-12-10T08:53:19;99928.77;;;-5.18;100.00
62948;BME280;51940;52.126;-0.994;2022-12-10T08:55:45;99925.55;;;-5.14;100.00
62948;BME280;51940;52.126;-0.994;2022-12-10T08:58:10;99923.95;;;-5.10;100.00
62948;BME280;51940;52.126;-0.994;2022-12-10T09:00:36;99923.16;;;-5.07;100.00
62948;BME280;51940;52.126;-0.994;2022-12-10T09:03:02;99925.17;;;-5.03;100.00
62948;BME280;51940;52.126;-0.994;2022-12-10T09:05:28;99928.59;;;-5.00;100.00
62948;BME280;51940;52.126;-0.994;2022-12-10T09:07:53;99929.90;;;-4.97;100.00
62948;BME280;51940;52.126;-0.994;2022-12-10T09:10:18;99927.36;;;-4.95;100.00
62948;BME280;51940;52.126;-0.994;2022-12-10T09:12:44;99924.51;;;-4.91;100.00
62948;BME280;51940;52.126;-0.994;2022-12-10T09:15:09;99921.66;;;-4.88;100.00
62948;BME280;51940;52.126;-0.994;2022-12-10T09:17:37;99922.23;;;-4.86;100.00
62948;BME280;51940;52.126;-0.994;2022-12-10T09:20:04;99920.92;;;-4.84;100.00
62948;BME280;51940;52.126;-0.994;2022-12-10T09:22:31;99926.62;;;-4.79;100.00
62948;BME280;51940;52.126;-0.994;2022-12-10T09:24:57;99930.05;;;-4.75;100.00
62948;BME280;51940;52.126;-0.994;2022-12-10T09:27:22;99931.16;;;-4.72;100.00
62948;BME280;51940;52.126;-0.994;2022-12-10T09:29:48;99929.59;;;-4.67;100.00
62948;BME280;51940;52.126;-0.994;2022-12-10T09:32:13;99929.71;;;-4.63;100.00
62948;BME280;51940;52.126;-0.994;2022-12-10T09:34:39;99928.30;;;-4.57;100.00
62948;BME280;51940;52.126;-0.994;2022-12-10T09:37:04;99928.65;;;-4.51;100.00
62948;BME280;51940;52.126;-0.994;2022-12-10T09:39:29;99933.34;;;-4.45;100.00
62948;BME280;51940;52.126;-0.994;2022-12-10T09:42:04;99936.45;;;-4.40;100.00
62948;BME280;51940;52.126;-0.994;2022-12-10T09:44:42;99936.14;;;-4.33;100.00
62948;BME280;51940;52.126;-0.994;2022-12-10T09:47:12;99939.19;;;-4.23;100.00
62948;BME280;51940;52.126;-0.994;2022-12-10T09:49:48;99943.25;;;-4.15;100.00
62948;BME280;51940;52.126;-0.994;2022-12-10T09:52:22;99940.55;;;-4.05;100.00
62948;BME280;51940;52.126;-0.994;2022-12-10T09:54:59;99938.23;;;-3.94;100.00
62948;BME280;51940;52.126;-0.994;2022-12-10T09:57:29;99941.49;;;-3.83;100.00
62948;BME280;51940;52.126;-0.994;2022-12-10T10:02:48;99941.09;;;-3.58;100.00
62948;BME280;51940;52.126;-0.994;2022-12-10T10:05:22;99942.61;;;-3.46;100.00
62948;BME280;51940;52.126;-0.994;2022-12-10T10:07:59;99940.30;;;-3.33;100.00
62948;BME280;51940;52.126;-0.994;2022-12-10T10:10:37;99943.40;;;-3.20;100.00
62948;BME280;51940;52.126;-0.994;2022-12-10T10:15:34;99939.98;;;-2.87;100.00
62948;BME280;51940;52.126;-0.994;2022-12-10T10:18:08;99941.20;;;-2.71;100.00
62948;BME280;51940;52.126;-0.994;2022-12-10T10:20:36;99936.12;;;-2.56;100.00
62948;BME280;51940;52.126;-0.994;2022-12-10T10:23:02;99935.30;;;-2.37;100.00
62948;BME280;51940;52.126;-0.994;2022-12-10T10:25:28;99935.61;;;-2.20;100.00
62948;BME280;51940;52.126;-0.994;2022-12-10T10:27:55;99937.29;;;-2.07;100.00
62948;BME280;51940;52.126;-0.994;2022-12-10T10:30:22;99933.95;;;-1.89;100.00
62948;BME280;51940;52.126;-0.994;2022-12-10T10:32:54;99936.02;;;-1.71;100.00
62948;BME280;51940;52.126;-0.994;2022-12-10T10:35:42;99935.11;;;-1.53;100.00
62948;BME280;51940;52.126;-0.994;2022-12-10T10:38:16;99934.83;;;-1.38;100.00
62948;BME280;51940;52.126;-0.994;2022-12-10T10:40:45;99937.30;;;-1.27;100.00
62948;BME280;51940;52.126;-0.994;2022-12-10T10:43:21;99934.44;;;-1.19;100.00
62948;BME280;51940;52.126;-0.994;2022-12-10T10:45:51;99933.88;;;-1.11;100.00
62948;BME280;51940;52.126;-0.994;2022-12-10T10:48:22;99933.77;;;-1.05;100.00
62948;BME280;51940;52.126;-0.994;2022-12-10T10:51:04;99935.72;;;-1.04;100.00
62948;BME280;51940;52.126;-0.994;2022-12-10T10:53:45;99940.16;;;-1.01;100.00
62948;BME280;51940;52.126;-0.994;2022-12-10T10:58:49;99941.17;;;-0.91;100.00
62948;BME280;51940;52.126;-0.994;2022-12-10T11:01:16;99941.21;;;-0.87;100.00
62948;BME280;51940;52.126;-0.994;2022-12-10T11:03:50;99941.12;;;-0.83;100.00
62948;BME280;51940;52.126;-0.994;2022-12-10T11:06:18;99938.06;;;-0.75;100.00
62948;BME280;51940;52.126;-0.994;2022-12-10T11:08:45;99939.55;;;-0.69;100.00
62948;BME280;51940;52.126;-0.994;2022-12-10T11:11:44;99935.94;;;-0.65;100.00
62948;BME280;51940;52.126;-0.994;2022-12-10T11:14:39;99931.65;;;-0.59;100.00
62948;BME280;51940;52.126;-0.994;2022-12-10T11:17:17;99932.77;;;-0.51;100.00
62948;BME280;51940;52.126;-0.994;2022-12-10T11:25:16;99919.02;;;-0.32;100.00
62948;BME280;51940;52.126;-0.994;2022-12-10T11:30:17;99915.69;;;-0.18;100.00
62948;BME280;51940;52.126;-0.994;2022-12-10T11:33:11;99915.07;;;-0.10;100.00
62948;BME280;51940;52.126;-0.994;2022-12-10T11:38:31;99920.30;;;0.03;100.00
62948;BME280;51940;52.126;-0.994;2022-12-10T11:41:36;99919.30;;;0.09;100.00
62948;BME280;51940;52.126;-0.994;2022-12-10T11:44:32;99917.64;;;0.17;100.00
62948;BME280;51940;52.126;-0.994;2022-12-10T11:47:14;99915.42;;;0.25;100.00
62948;BME280;51940;52.126;-0.994;2022-12-10T11:50:01;99918.30;;;0.33;100.00
62948;BME280;51940;52.126;-0.994;2022-12-10T11:52:44;99916.08;;;0.38;100.00
62948;BME280;51940;52.126;-0.994;2022-12-10T12:09:34;99902.94;;;0.60;100.00
62948;BME280;51940;52.126;-0.994;2022-12-10T12:14:44;99900.87;;;0.67;100.00
62948;BME280;51940;52.126;-0.994;2022-12-10T12:17:31;99900.91;;;0.69;100.00
62948;BME280;51940;52.126;-0.994;2022-12-10T12:20:02;99901.11;;;0.72;100.00
62948;BME280;51940;52.126;-0.994;2022-12-10T12:22:34;99895.67;;;0.75;100.00
62948;BME280;51940;52.126;-0.994;2022-12-10T12:25:13;99896.73;;;0.77;100.00
62948;BME280;51940;52.126;-0.994;2022-12-10T12:27:46;99897.13;;;0.79;100.00
62948;BME280;51940;52.126;-0.994;2022-12-10T12:30:18;99895.20;;;0.82;100.00
62948;BME280;51940;52.126;-0.994;2022-12-10T12:35:48;99897.35;;;0.86;100.00
62948;BME280;51940;52.126;-0.994;2022-12-10T12:41:23;99896.31;;;0.91;100.00
62948;BME280;51940;52.126;-0.994;2022-12-10T12:44:00;99899.69;;;0.94;100.00
62948;BME280;51940;52.126;-0.994;2022-12-10T12:46:42;99897.77;;;0.96;100.00
62948;BME280;51940;52.126;-0.994;2022-12-10T12:49:27;99894.97;;;0.98;100.00
62948;BME280;51940;52.126;-0.994;2022-12-10T12:52:00;99895.50;;;1.00;100.00
62948;BME280;51940;52.126;-0.994;2022-12-10T12:54:27;99894.97;;;1.01;100.00
62948;BME280;51940;52.126;-0.994;2022-12-10T13:04:47;99888.88;;;1.06;100.00
62948;BME280;51940;52.126;-0.994;2022-12-10T13:09:48;99885.19;;;1.06;100.00
62948;BME280;51940;52.126;-0.994;2022-12-10T13:15:00;99884.84;;;1.07;100.00
62948;BME280;51940;52.126;-0.994;2022-12-10T13:20:29;99881.67;;;1.05;100.00
62948;BME280;51940;52.126;-0.994;2022-12-10T13:23:05;99878.33;;;1.06;100.00
62948;BME280;51940;52.126;-0.994;2022-12-10T13:28:31;99880.27;;;1.06;100.00
62948;BME280;51940;52.126;-0.994;2022-12-10T13:31:17;99877.10;;;1.05;100.00
62948;BME280;51940;52.126;-0.994;2022-12-10T13:39:31;99881.33;;;1.04;100.00
62948;BME280;51940;52.126;-0.994;2022-12-10T13:42:28;99884.82;;;1.03;100.00
62948;BME280;51940;52.126;-0.994;2022-12-10T13:47:52;99888.70;;;1.03;100.00
62948;BME280;51940;52.126;-0.994;2022-12-10T13:50:45;99887.98;;;1.03;100.00
62948;BME280;51940;52.126;-0.994;2022-12-10T13:55:55;99885.31;;;1.02;100.00
62948;BME280;51940;52.126;-0.994;2022-12-10T13:58:57;99883.75;;;1.02;100.00
62948;BME280;51940;52.126;-0.994;2022-12-10T14:04:25;99874.25;;;1.01;100.00
62948;BME280;51940;52.126;-0.994;2022-12-10T14:06:55;99873.73;;;1.00;100.00
62948;BME280;51940;52.126;-0.994;2022-12-10T14:09:24;99875.13;;;1.00;100.00
62948;BME280;51940;52.126;-0.994;2022-12-10T14:11:55;99878.29;;;1.00;100.00
62948;BME280;51940;52.126;-0.994;2022-12-10T14:14:27;99878.81;;;0.99;100.00
62948;BME280;51940;52.126;-0.994;2022-12-10T14:17:00;99875.14;;;0.98;100.00
62948;BME280;51940;52.126;-0.994;2022-12-10T14:19:27;99872.31;;;0.97;100.00
62948;BME280;51940;52.126;-0.994;2022-12-10T14:21:54;99874.59;;;0.95;100.00
62948;BME280;51940;52.126;-0.994;2022-12-10T14:27:00;99874.55;;;0.91;100.00
62948;BME280;51940;52.126;-0.994;2022-12-10T14:29:26;99882.44;;;0.89;100.00
62948;BME280;51940;52.126;-0.994;2022-12-10T14:31:52;99879.10;;;0.88;100.00